x

Buoy B01 - Western Maine Shelf (44030) Wave Buoy

9:04am - Mon 22nd Sep 2014 All times are EDT. -4 hours from GMT.

  • Sig Wave height 2.0ft
  • Peak Period 3s
  • Wind
    18mph, 20mph gusts
  • Sea Temp 61°f
  • 空気 Temp 63°f
  • Sea Pressure 1001.7mb
  • Buoy B01 - Western Maine Shelf
  • Buoy B01 - Western Maine Shelf

More Historic Weather Station data

Upgrade to MSW Pro to gain access to the past 30 days of data for over 8000 Wavebouys and Weather Stations around the globe.

Join Pro

Comparision Forecast

View Surf forecast
   
Mon 09/22 9:04am 2ft 3s 18 20 mph 1001.7mb 61f 63f
8:04am 1.3ft 3s 16 18 mph 1001.1mb 61f 63f
7:04am 2.5ft 8s 16 18 mph 1000.6mb 60f 64f
6:04am 2.5ft 11s 11 13 mph 999.5mb 61f 62f
5:04am 2.5ft 8s 11 13 mph 998.3mb 61f 62f
4:04am 2.5ft 5s 9 11 mph 997.8mb 61f 61f
3:04am 2.5ft 11s 4 7 mph 997.9mb 61f 61f
2:04am 2.5ft 6s 4
mph
998.1mb 61f 61f
1:04am 2ft 6s 2
mph
998.5mb 61f 61f
12:04am 2ft 4s 2
mph
999.1mb 61f 61f
Sun 09/21 11:04pm 2.5ft 11s 4
mph
999.8mb 61f 62f
10:04pm 2.5ft 8s 2 4 mph 1000.5mb 60f 62f
9:04pm 1.6ft 5s 7
mph
1001.3mb 60f 62f
8:04pm 2.5ft 5s 7 9 mph 1002.2mb 60f 62f
7:04pm 2.5ft 11s 9
mph
1002.7mb 60f 62f
6:04pm 2.5ft 5s 13 16 mph 1003.6mb 60f 62f
5:04pm 2.5ft 5s 16 18 mph 1004.7mb 60f 62f
4:04pm 2.5ft 5s 16 18 mph 1005.6mb 60f 62f
3:04pm 3ft 5s 13 16 mph 1006.5mb 60f 63f
2:04pm 3ft 5s 16 18 mph 1007.3mb 60f 63f
1:04pm 3ft 5s 16 20 mph 1008.8mb 60f 63f
12:04pm 3ft 5s 16 18 mph 1010.2mb 60f 62f
11:04am 3.5ft 5s 13 16 mph 1011.4mb 60f 62f
10:04am 2.5ft 5s 11 13 mph 1011.8mb 60f 62f
9:04am 2.5ft 5s 9 11 mph 1012.7mb 60f 62f
8:04am 2.5ft 8s 7
mph
1012.8mb 60f 61f
7:04am 2.5ft 8s 11 13 mph 1013.4mb 60f 61f
6:04am 2.5ft 8s 9 11 mph 1013.5mb 60f 60f
5:04am 3ft 11s 9 11 mph 1014.4mb 60f 61f
4:04am 2.5ft 5s 13 16 mph 1014.7mb 60f 61f
3:04am 3ft 5s 13 16 mph 1015.4mb 60f 61f
2:04am 3ft 5s 16 18 mph 1016.2mb 60f 61f
1:04am 3ft 5s 13 16 mph 1016.9mb 60f 61f
12:04am 3.5ft 5s 16 18 mph 1017mb 60f 61f
Sat 09/20 11:04pm 3.5ft 5s 13 16 mph 1017.7mb 60f 61f
10:04pm 4ft 5s 18 20 mph 1018.3mb 60f 62f
9:04pm 4.5ft 5s 20 22 mph 1018.6mb 60f 63f
8:04pm 4.5ft 5s 20 22 mph 1018.7mb 60f 62f
7:04pm 4.5ft 5s 18 20 mph 1018.8mb 60f 62f
6:04pm 5ft 5s 20 25 mph 1019.1mb 60f 61f
5:04pm 5ft 5s 20 25 mph 1019.4mb 60f 61f
4:04pm 4.5ft 5s 20 25 mph 1020mb 60f 61f
3:04pm 4.5ft 5s 22 27 mph 1020.8mb 60f 60f
2:04pm 5ft 5s 20 27 mph 1021.4mb 60f 60f
1:04pm 5ft 5s 20 25 mph 1022.5mb 60f 59f
12:04pm 5ft 5s 22 27 mph 1023.5mb 60f 58f
11:04am 4.5ft 5s 22 27 mph 1024mb 60f 58f
10:04am 3.5ft 5s 22 25 mph 1024.5mb 60f 57f
9:04am 3ft 4s 20 22 mph 1025.4mb 60f 56f
8:04am 3ft 4s 20 22 mph 1026.2mb 60f 56f
7:04am 2.5ft 4s 20 25 mph 1026.3mb 60f 56f
6:04am 2.5ft 4s 18 22 mph 1026.6mb 60f 55f
5:04am 2.5ft 4s 11 16 mph 1027.6mb 60f 54f
4:04am 2.5ft 4s 13 18 mph 1027.4mb 60f 54f
3:04am 3ft 4s 18 20 mph 1027.4mb 60f 55f
2:04am 2.5ft 3s 16 18 mph 1028mb 60f 55f
1:04am 2.5ft 3s 16 20 mph 1028mb 60f 54f
12:04am 2.5ft 8s 16 20 mph 1028mb 60f 54f
Fri 09/19 11:04pm 2.5ft 8s 16 18 mph 1028.6mb 60f 53f
10:04pm 3ft 6s 11 16 mph 1028.8mb 60f 53f
9:04pm  -   -  11 16 mph 1029mb 60f 53f
8:04pm 2.5ft 8s 11 13 mph 1028.9mb 60f 53f
7:04pm 2.5ft 8s 11 13 mph 1028.5mb 60f 53f
6:04pm 2.5ft 8s 9 11 mph 1028.3mb 60f 53f
5:04pm 2.5ft 6s 7 9 mph 1028.3mb 60f 53f
4:04pm 2.5ft 11s 7 9 mph 1028.2mb 60f 52f
3:04pm 2.5ft 11s 7 9 mph 1028.6mb 60f 51f
2:04pm 2.5ft 11s 9 11 mph 1028.9mb 60f 51f
1:04pm 2ft 5s 11 13 mph 1028.7mb 60f 50f
12:04pm 2.5ft 5s 9 13 mph 1028.5mb 60f 50f
11:04am 2.5ft 5s 11 16 mph 1028mb 61f 50f
10:04am 3ft 5s 16 18 mph 1027.7mb 61f 50f
9:04am 3.5ft 5s 18 25 mph 1027.2mb 61f 49f
8:04am 3.5ft 5s 18 22 mph 1026.3mb 61f 48f
7:04am 3ft 5s 20 25 mph 1025.4mb 61f 48f
6:04am 5ft 11s 20 22 mph 1024.8mb 61f 48f
5:04am 3.5ft 5s 20 25 mph 1023.9mb 61f 49f
4:04am 3.5ft 5s 20 25 mph 1023mb 61f 51f
3:04am 5ft 5s 20 25 mph 1022.3mb 61f 51f
2:04am 5ft 11s 22 27 mph 1021.7mb 61f 52f
1:04am 3ft 4s 22 27 mph 1020.8mb 61f 53f
12:04am  -   -  20 25 mph 1020mb 62f 54f
Thu 09/18 11:04pm 4.5ft 11s 20 25 mph 1019.1mb 62f 55f
10:04pm 4ft 11s 20 25 mph 1018.2mb 62f 57f
9:04pm 4ft 11s 18 20 mph 1017.6mb 62f 58f
8:04pm 3.5ft 11s 20 22 mph 1016.3mb 63f 61f
7:04pm 2.5ft 11s 7 9 mph 1015.1mb 63f 63f
6:04pm  -   -  7
mph
1014.3mb 63f 62f
5:04pm 4ft 11s 7 9 mph 1013.4mb 63f 65f
4:04pm  -   -  7 13 mph 1013mb 63f 66f
3:04pm 4ft 11s 7
mph
1012.9mb 63f 63f